createdAt,value
2023-03-02T00:01:24.675Z,0.93
2023-03-02T00:03:52.382Z,0.88
2023-03-02T00:06:20.277Z,0.89
2023-03-02T00:08:48.214Z,0.89
2023-03-02T00:11:16.425Z,0.90
2023-03-02T00:13:45.415Z,0.97
2023-03-02T00:16:12.994Z,0.86
2023-03-02T00:18:40.593Z,0.89
2023-03-02T00:21:10.456Z,0.93
2023-03-02T00:23:38.473Z,0.86
2023-03-02T00:26:06.388Z,0.87
2023-03-02T00:28:34.239Z,0.80
2023-03-02T00:31:05.168Z,0.88
2023-03-02T00:33:32.938Z,0.72
2023-03-02T00:36:00.516Z,0.76
2023-03-02T00:38:28.630Z,0.71
2023-03-02T00:40:56.652Z,0.72
2023-03-02T00:43:29.435Z,0.74
2023-03-02T00:45:56.968Z,0.79
2023-03-02T00:48:25.928Z,0.73
2023-03-02T00:50:53.492Z,0.73
2023-03-02T00:53:21.072Z,0.66
2023-03-02T00:55:54.391Z,0.83
2023-03-02T00:58:22.194Z,0.70
2023-03-02T01:00:50.080Z,0.73
2023-03-02T01:03:17.692Z,0.75
2023-03-02T01:05:46.644Z,0.78
2023-03-02T01:08:14.360Z,0.75
2023-03-02T01:10:42.173Z,0.77
2023-03-02T01:13:09.715Z,0.73
2023-03-02T01:15:37.261Z,0.61
2023-03-02T01:18:05.119Z,0.62
2023-03-02T01:20:32.693Z,0.62
2023-03-02T01:23:01.601Z,0.61
2023-03-02T01:25:29.274Z,0.66
2023-03-02T01:27:57.008Z,0.50
2023-03-02T01:30:24.582Z,0.46
2023-03-02T01:32:52.155Z,0.51
2023-03-02T01:35:19.922Z,0.48
2023-03-02T01:37:47.551Z,0.50
2023-03-02T01:40:18.745Z,0.46
2023-03-02T01:42:55.102Z,0.55
2023-03-02T01:45:47.432Z,0.51
2023-03-02T01:48:17.279Z,0.46
2023-03-02T01:50:45.122Z,0.54
2023-03-02T01:53:13.073Z,0.39
2023-03-02T01:55:44.145Z,0.41
2023-03-02T01:58:13.416Z,0.50
2023-03-02T02:00:41.284Z,0.46
2023-03-02T02:03:12.083Z,0.52
2023-03-02T02:05:41.403Z,0.51
2023-03-02T02:08:09.469Z,0.57
2023-03-02T02:10:37.289Z,0.52
2023-03-02T02:13:07.196Z,0.51
2023-03-02T02:15:34.827Z,0.54
2023-03-02T02:18:02.425Z,0.64
2023-03-02T02:20:35.048Z,0.50
2023-03-02T02:23:11.303Z,0.49
2023-03-02T02:25:46.438Z,0.47
2023-03-02T02:28:19.261Z,0.53
2023-03-02T02:30:47.454Z,0.62
2023-03-02T02:33:16.721Z,0.64
2023-03-02T02:35:47.067Z,0.63
2023-03-02T02:38:17.289Z,0.60
2023-03-02T02:40:47.511Z,0.56
2023-03-02T02:43:18.371Z,0.59
2023-03-02T02:45:46.587Z,0.51
2023-03-02T02:48:17.334Z,0.48
2023-03-02T02:50:45.643Z,0.60
2023-03-02T02:53:15.278Z,0.66
2023-03-02T02:55:43.286Z,0.66
2023-03-02T02:58:26.186Z,0.68
2023-03-02T03:00:54.703Z,0.74
2023-03-02T03:03:30.750Z,0.65
2023-03-02T03:05:59.686Z,0.66
2023-03-02T03:08:55.757Z,0.66
2023-03-02T03:11:26.393Z,0.55
2023-03-02T03:13:59.897Z,0.66
2023-03-02T03:16:30.030Z,0.67
2023-03-02T03:18:58.734Z,0.60
2023-03-02T03:21:26.254Z,0.55
2023-03-02T03:23:53.810Z,0.67
2023-03-02T03:26:21.581Z,0.77
2023-03-02T03:28:49.129Z,0.58
2023-03-02T03:31:18.213Z,0.58
2023-03-02T03:33:45.851Z,0.49
2023-03-02T03:36:13.547Z,0.58
2023-03-02T03:38:41.159Z,0.43
2023-03-02T03:41:08.691Z,0.57
2023-03-02T03:43:36.301Z,0.53
2023-03-02T03:46:03.968Z,0.50
2023-03-02T03:48:32.902Z,0.43
2023-03-02T03:51:00.566Z,0.59
2023-03-02T03:53:28.476Z,0.42
2023-03-02T03:55:58.247Z,0.38
2023-03-02T03:58:26.103Z,0.50
2023-03-02T04:00:54.032Z,0.42
2023-03-02T04:03:22.027Z,0.43
2023-03-02T04:05:50.922Z,0.49
2023-03-02T04:08:18.583Z,0.42
2023-03-02T04:10:46.520Z,0.35
2023-03-02T04:13:14.177Z,0.33
2023-03-02T04:15:43.122Z,0.29
2023-03-02T04:18:11.508Z,0.38
2023-03-02T04:20:39.128Z,0.28
2023-03-02T04:23:08.067Z,0.34
2023-03-02T04:25:35.590Z,0.38
2023-03-02T04:28:03.240Z,0.37
2023-03-02T04:30:33.040Z,0.23
2023-03-02T04:33:00.648Z,0.19
2023-03-02T04:35:28.277Z,0.15
2023-03-02T04:37:55.975Z,0.23
2023-03-02T04:40:25.097Z,0.07
2023-03-02T04:42:52.740Z,0.04
2023-03-02T04:45:20.480Z,0.16
2023-03-02T04:47:48.069Z,0.11
2023-03-02T04:50:16.320Z,0.06
2023-03-02T04:52:43.835Z,0.07
2023-03-02T04:55:17.307Z,0.05
2023-03-02T04:57:46.185Z,0.10
2023-03-02T05:00:14.493Z,0.02
2023-03-02T05:02:42.340Z,0.05
2023-03-02T05:05:14.700Z,0.27
2023-03-02T05:07:42.262Z,0.13
2023-03-02T05:10:10.966Z,0.22
2023-03-02T05:12:54.501Z,0.17
2023-03-02T05:15:24.659Z,0.21
2023-03-02T05:17:52.331Z,0.25
2023-03-02T05:20:20.347Z,0.13
2023-03-02T05:22:48.214Z,0.17
2023-03-02T05:25:15.821Z,0.16
2023-03-02T05:27:43.354Z,0.08
2023-03-02T05:30:12.396Z,0.02
2023-03-02T05:32:41.482Z,0.13
2023-03-02T05:35:09.887Z,-0.02
2023-03-02T05:37:39.736Z,0.08
2023-03-02T05:40:09.478Z,-0.05
2023-03-02T05:42:37.052Z,-0.01
2023-03-02T05:45:05.329Z,0.01
2023-03-02T05:47:32.901Z,0.07
2023-03-02T05:50:02.177Z,0.07
2023-03-02T05:52:29.768Z,0.07
2023-03-02T05:54:59.398Z,0.09
2023-03-02T05:57:27.627Z,0.08
2023-03-02T05:59:55.156Z,0.11
2023-03-02T06:02:22.791Z,0.24
2023-03-02T06:04:50.421Z,0.22
2023-03-02T06:07:19.390Z,0.24
2023-03-02T06:09:46.984Z,0.25
2023-03-02T06:12:14.554Z,0.30
2023-03-02T06:14:42.301Z,0.26
2023-03-02T06:17:09.842Z,0.34
2023-03-02T06:19:37.426Z,0.29
2023-03-02T06:22:05.045Z,0.36
2023-03-02T06:24:34.125Z,0.37
2023-03-02T06:27:01.719Z,0.59
2023-03-02T06:29:29.376Z,0.61
2023-03-02T06:31:57.028Z,0.72
2023-03-02T06:34:24.636Z,0.60
2023-03-02T06:36:52.202Z,0.67
2023-03-02T06:39:19.758Z,0.63
2023-03-02T06:41:49.427Z,0.75
2023-03-02T06:44:18.764Z,0.81
2023-03-02T06:46:46.608Z,0.71
2023-03-02T06:49:14.323Z,0.92
2023-03-02T06:51:41.882Z,0.87
2023-03-02T06:54:09.466Z,0.88
2023-03-02T06:56:37.828Z,0.95
2023-03-02T06:59:07.473Z,1.00
2023-03-02T07:01:36.279Z,1.01
2023-03-02T07:04:04.317Z,1.16
2023-03-02T07:06:31.904Z,1.21
2023-03-02T07:08:59.470Z,1.29
2023-03-02T07:11:27.001Z,1.35
2023-03-02T07:13:54.639Z,1.44
2023-03-02T07:16:23.636Z,1.58
2023-03-02T07:18:51.215Z,1.76
2023-03-02T07:21:18.766Z,1.67
2023-03-02T07:23:46.362Z,1.73
2023-03-02T07:26:13.908Z,1.75
2023-03-02T07:28:43.406Z,1.98
2023-03-02T07:31:11.589Z,1.99
2023-03-02T07:33:40.956Z,1.99
2023-03-02T07:36:09.546Z,2.00
2023-03-02T07:38:38.484Z,2.18
2023-03-02T07:41:08.136Z,2.14
2023-03-02T07:43:36.595Z,2.30
2023-03-02T07:46:04.965Z,2.44
2023-03-02T07:48:32.654Z,2.39
2023-03-02T07:51:02.917Z,2.43
2023-03-02T07:53:31.947Z,2.48
2023-03-02T07:56:01.269Z,2.63
2023-03-02T07:58:29.069Z,2.62
2023-03-02T08:00:56.626Z,2.72
2023-03-02T08:03:24.238Z,2.70
2023-03-02T08:05:51.810Z,3.03
2023-03-02T08:08:20.738Z,3.13
2023-03-02T08:10:48.350Z,3.04
2023-03-02T08:13:15.999Z,3.21
2023-03-02T08:15:43.633Z,3.27
2023-03-02T08:18:11.320Z,3.41
2023-03-02T08:20:39.316Z,3.67
2023-03-02T08:23:06.954Z,3.59
2023-03-02T08:25:35.923Z,3.72
2023-03-02T08:28:03.456Z,3.70
2023-03-02T08:30:31.134Z,3.83
2023-03-02T08:32:58.996Z,3.84
2023-03-02T08:35:27.681Z,3.90
2023-03-02T08:37:55.325Z,3.90
2023-03-02T08:40:23.100Z,4.06
2023-03-02T08:42:56.910Z,4.26
2023-03-02T08:45:25.253Z,4.01
2023-03-02T08:47:54.238Z,3.93
2023-03-02T08:50:21.834Z,4.17
2023-03-02T08:52:49.508Z,4.46
2023-03-02T08:55:18.460Z,4.34
2023-03-02T08:57:46.460Z,4.38
2023-03-02T09:00:16.941Z,4.57
2023-03-02T09:02:44.631Z,4.67
2023-03-02T09:05:12.262Z,4.66
2023-03-02T09:07:39.892Z,4.73
2023-03-02T09:10:07.877Z,4.75
2023-03-02T09:12:35.574Z,4.65
2023-03-02T09:15:03.198Z,4.90
2023-03-02T09:17:32.247Z,5.00
2023-03-02T09:20:00.420Z,5.24
2023-03-02T09:22:28.668Z,5.07
2023-03-02T09:24:56.284Z,5.00
2023-03-02T09:27:23.894Z,5.25
2023-03-02T09:29:51.476Z,5.33
2023-03-02T09:32:19.167Z,5.51
2023-03-02T09:34:48.351Z,5.55
2023-03-02T09:37:16.042Z,5.47
2023-03-02T09:39:43.740Z,5.64
2023-03-02T09:42:19.988Z,5.27
2023-03-02T09:45:03.977Z,5.40
2023-03-02T09:47:37.608Z,5.50
2023-03-02T09:50:18.136Z,5.56
2023-03-02T09:52:52.362Z,5.62
2023-03-02T09:55:23.624Z,5.65
2023-03-02T09:57:51.385Z,6.11
2023-03-02T10:00:25.833Z,6.11
2023-03-02T10:02:58.754Z,6.04
2023-03-02T10:05:36.814Z,6.26
2023-03-02T10:08:04.461Z,6.18
2023-03-02T10:10:37.744Z,5.89
2023-03-02T10:13:19.899Z,6.29
2023-03-02T10:15:56.574Z,6.22
2023-03-02T10:18:26.797Z,6.27
2023-03-02T10:20:59.735Z,6.19
2023-03-02T10:23:35.065Z,6.19
2023-03-02T10:26:10.986Z,6.23
2023-03-02T10:28:43.243Z,6.72
2023-03-02T10:31:13.281Z,6.65
2023-03-02T10:33:41.916Z,6.36
2023-03-02T10:36:20.997Z,6.39
2023-03-02T10:38:48.694Z,6.50
2023-03-02T10:41:19.378Z,6.66
2023-03-02T10:43:49.495Z,6.65
2023-03-02T10:46:17.119Z,6.79
2023-03-02T10:48:49.879Z,6.82
2023-03-02T10:51:29.661Z,7.10
2023-03-02T10:54:05.595Z,7.18
2023-03-02T10:56:33.934Z,7.28
2023-03-02T10:59:03.963Z,7.38
2023-03-02T11:01:32.551Z,7.41
2023-03-02T11:04:01.841Z,7.49
2023-03-02T11:06:31.461Z,7.24
2023-03-02T11:09:00.836Z,7.60
2023-03-02T11:11:28.490Z,7.84
2023-03-02T11:13:57.263Z,7.87
2023-03-02T11:16:28.446Z,7.82
2023-03-02T11:18:59.694Z,7.90
2023-03-02T11:21:35.543Z,7.90
2023-03-02T11:24:10.408Z,7.99
2023-03-02T11:26:40.027Z,8.18
2023-03-02T11:29:14.690Z,8.15
2023-03-02T11:31:44.953Z,8.17
2023-03-02T11:34:22.453Z,8.21
2023-03-02T11:36:59.048Z,8.21
2023-03-02T11:39:32.691Z,8.46
2023-03-02T11:42:00.416Z,8.65
2023-03-02T11:44:29.669Z,8.21
2023-03-02T11:47:01.123Z,8.28
2023-03-02T11:49:37.972Z,8.50
2023-03-02T11:52:08.202Z,8.44
2023-03-02T11:54:42.231Z,8.32
2023-03-02T11:57:20.440Z,8.53
2023-03-02T11:59:48.500Z,8.60
2023-03-02T12:02:16.496Z,8.51
2023-03-02T12:04:44.459Z,8.83
2023-03-02T12:07:23.797Z,9.05
2023-03-02T12:09:59.874Z,8.64
2023-03-02T12:12:48.397Z,8.66
2023-03-02T12:15:29.275Z,9.17
2023-03-02T12:17:56.905Z,9.06
2023-03-02T12:20:27.444Z,9.32
2023-03-02T12:23:07.904Z,8.89
2023-03-02T12:25:43.780Z,9.31
2023-03-02T12:28:28.148Z,9.43
2023-03-02T12:31:04.591Z,9.34
2023-03-02T12:33:32.161Z,9.51
2023-03-02T12:36:13.109Z,9.67
2023-03-02T12:38:43.994Z,9.96
2023-03-02T12:41:35.646Z,9.63
2023-03-02T12:44:13.807Z,9.64
2023-03-02T12:46:46.283Z,10.09
2023-03-02T12:49:33.435Z,9.69
2023-03-02T12:52:02.608Z,9.78
2023-03-02T12:54:37.818Z,9.94
2023-03-02T12:57:09.084Z,10.11
2023-03-02T12:59:39.712Z,10.17
2023-03-02T13:02:16.770Z,10.22
2023-03-02T13:04:46.322Z,10.16
2023-03-02T13:07:19.889Z,9.84
2023-03-02T13:09:56.599Z,9.96
2023-03-02T13:12:28.009Z,10.09
2023-03-02T13:15:01.082Z,10.22
2023-03-02T13:17:31.157Z,10.15
2023-03-02T13:20:04.145Z,10.14
2023-03-02T13:22:32.719Z,10.09
2023-03-02T13:25:05.153Z,10.23
2023-03-02T13:27:34.164Z,10.31
2023-03-02T13:30:19.075Z,10.34
2023-03-02T13:32:47.357Z,10.27
2023-03-02T13:35:21.001Z,10.64
2023-03-02T13:37:56.158Z,10.62
2023-03-02T13:40:40.634Z,10.44
2023-03-02T13:43:35.671Z,10.56
2023-03-02T13:46:05.233Z,10.41
2023-03-02T13:48:34.345Z,10.59
2023-03-02T13:51:05.034Z,10.64
2023-03-02T13:53:38.201Z,10.54
2023-03-02T13:56:08.401Z,10.56
2023-03-02T13:58:39.657Z,10.47
2023-03-02T14:01:08.984Z,10.59
2023-03-02T14:03:37.609Z,10.42
2023-03-02T14:06:07.137Z,10.50
2023-03-02T14:08:35.363Z,10.56
2023-03-02T14:11:04.771Z,10.81
2023-03-02T14:13:38.169Z,10.64
2023-03-02T14:16:07.572Z,10.59
2023-03-02T14:18:39.973Z,10.47
2023-03-02T14:21:08.056Z,10.53
2023-03-02T14:23:36.302Z,10.65
2023-03-02T14:26:11.308Z,10.76
2023-03-02T14:28:40.639Z,10.70
2023-03-02T14:31:10.150Z,10.58
2023-03-02T14:33:38.675Z,10.60
2023-03-02T14:36:06.917Z,10.65
2023-03-02T14:38:35.392Z,10.56
2023-03-02T14:41:03.104Z,10.60
2023-03-02T14:43:30.819Z,10.66
2023-03-02T14:45:59.760Z,10.53
2023-03-02T14:48:27.342Z,10.59
2023-03-02T14:50:54.888Z,10.47
2023-03-02T14:53:27.855Z,10.51
2023-03-02T14:55:55.416Z,10.47
2023-03-02T14:58:29.188Z,10.39
2023-03-02T15:00:56.755Z,10.45
2023-03-02T15:03:26.724Z,10.56
2023-03-02T15:06:01.391Z,10.55
2023-03-02T15:08:29.629Z,10.53
2023-03-02T15:10:57.316Z,10.60
2023-03-02T15:13:24.904Z,10.41
2023-03-02T15:15:52.741Z,10.49
2023-03-02T15:18:20.471Z,10.53
2023-03-02T15:20:49.413Z,10.40
2023-03-02T15:23:17.007Z,10.49
2023-03-02T15:25:44.572Z,10.43
2023-03-02T15:28:12.120Z,10.35
2023-03-02T15:30:41.559Z,10.31
2023-03-02T15:33:09.163Z,10.31
2023-03-02T15:35:39.505Z,10.40
2023-03-02T15:38:08.473Z,10.20
2023-03-02T15:40:36.691Z,10.10
2023-03-02T15:43:04.602Z,10.07
2023-03-02T15:45:32.125Z,10.08
2023-03-02T15:47:59.679Z,10.06
2023-03-02T15:50:27.277Z,10.01
2023-03-02T15:52:57.309Z,9.85
2023-03-02T15:55:27.038Z,9.91
2023-03-02T15:57:57.927Z,9.88
2023-03-02T16:00:25.986Z,9.83
2023-03-02T16:02:54.639Z,9.70
2023-03-02T16:05:22.353Z,9.73
2023-03-02T16:07:49.932Z,9.79
2023-03-02T16:10:19.580Z,9.68
2023-03-02T16:12:48.502Z,9.59
2023-03-02T16:15:16.121Z,9.57
2023-03-02T16:17:43.903Z,9.57
2023-03-02T16:20:12.875Z,9.65
2023-03-02T16:22:40.546Z,9.57
2023-03-02T16:25:08.806Z,9.45
2023-03-02T16:27:36.404Z,9.47
2023-03-02T16:30:06.132Z,9.47
2023-03-02T16:32:34.138Z,9.33
2023-03-02T16:35:01.684Z,9.29
2023-03-02T16:37:29.395Z,9.21
2023-03-02T16:39:57.058Z,9.22
2023-03-02T16:42:24.613Z,9.11
2023-03-02T16:44:52.175Z,9.13
2023-03-02T16:47:21.059Z,8.90
2023-03-02T16:49:48.626Z,8.89
2023-03-02T16:52:18.550Z,8.70
2023-03-02T16:54:46.164Z,8.69
2023-03-02T16:57:13.694Z,8.60
2023-03-02T16:59:41.347Z,8.48
2023-03-02T17:02:10.110Z,8.47
2023-03-02T17:04:39.103Z,8.52
2023-03-02T17:07:06.694Z,8.30
2023-03-02T17:09:35.963Z,8.24
2023-03-02T17:12:03.891Z,8.22
2023-03-02T17:14:31.469Z,8.36
2023-03-02T17:16:59.021Z,8.22
2023-03-02T17:19:29.365Z,8.03
2023-03-02T17:21:59.206Z,7.98
2023-03-02T17:24:26.977Z,7.95
2023-03-02T17:26:54.559Z,7.82
2023-03-02T17:29:22.649Z,7.78
2023-03-02T17:31:50.313Z,7.75
2023-03-02T17:34:17.939Z,7.64
2023-03-02T17:36:45.529Z,7.57
2023-03-02T17:39:14.426Z,7.48
2023-03-02T17:41:42.017Z,7.41
2023-03-02T17:44:09.561Z,7.34
2023-03-02T17:46:37.187Z,7.24
2023-03-02T17:49:04.799Z,7.15
2023-03-02T17:51:32.376Z,7.15
2023-03-02T17:53:59.999Z,7.26
2023-03-02T17:56:29.975Z,7.10
2023-03-02T17:58:59.326Z,7.18
2023-03-02T18:01:27.419Z,7.18
2023-03-02T18:03:55.214Z,7.09
2023-03-02T18:06:22.838Z,7.24
2023-03-02T18:08:51.810Z,7.17
2023-03-02T18:11:21.957Z,7.11
2023-03-02T18:13:51.041Z,7.07
2023-03-02T18:16:18.603Z,7.06
2023-03-02T18:18:46.186Z,6.98
2023-03-02T18:21:13.851Z,6.94
2023-03-02T18:23:41.955Z,6.84
2023-03-02T18:26:09.609Z,6.90
2023-03-02T18:28:37.176Z,6.86
2023-03-02T18:31:06.736Z,6.89
2023-03-02T18:33:34.920Z,6.88
2023-03-02T18:36:05.317Z,6.76
2023-03-02T18:38:33.097Z,6.79
2023-03-02T18:41:02.998Z,6.80
2023-03-02T18:43:32.632Z,6.70
2023-03-02T18:46:00.393Z,6.70
2023-03-02T18:48:29.725Z,6.65
2023-03-02T18:50:57.488Z,6.44
2023-03-02T18:53:25.421Z,6.45
2023-03-02T18:55:55.531Z,6.44
2023-03-02T18:58:25.092Z,6.36
2023-03-02T19:00:54.406Z,6.31
2023-03-02T19:03:22.324Z,6.14
2023-03-02T19:05:53.070Z,6.17
2023-03-02T19:08:24.263Z,6.10
2023-03-02T19:10:52.745Z,6.09
2023-03-02T19:13:20.896Z,5.96
2023-03-02T19:15:48.919Z,6.13
2023-03-02T19:18:17.477Z,6.09
2023-03-02T19:20:46.324Z,6.01
2023-03-02T19:23:15.826Z,5.91
2023-03-02T19:25:44.117Z,5.83
2023-03-02T19:28:12.089Z,5.78
2023-03-02T19:30:40.045Z,6.00
2023-03-02T19:33:09.261Z,5.84
2023-03-02T19:35:38.371Z,5.96
2023-03-02T19:38:06.146Z,5.83
2023-03-02T19:40:35.560Z,5.71
2023-03-02T19:43:03.281Z,5.84
2023-03-02T19:45:35.046Z,6.00
2023-03-02T19:48:03.671Z,5.82
2023-03-02T19:50:31.501Z,5.76
2023-03-02T19:52:59.963Z,5.76
2023-03-02T19:55:28.222Z,5.69
2023-03-02T19:58:00.070Z,5.64
2023-03-02T20:00:29.074Z,5.66
2023-03-02T20:02:57.532Z,5.59
2023-03-02T20:05:25.965Z,5.57
2023-03-02T20:07:53.520Z,5.66
2023-03-02T20:10:28.485Z,5.64
2023-03-02T20:12:59.244Z,5.75
2023-03-02T20:15:27.450Z,5.56
2023-03-02T20:17:55.345Z,5.64
2023-03-02T20:20:24.703Z,5.55
2023-03-02T20:22:52.937Z,5.37
2023-03-02T20:25:23.751Z,5.49
2023-03-02T20:27:51.962Z,5.39
2023-03-02T20:30:27.856Z,5.25
2023-03-02T20:32:56.782Z,5.30
2023-03-02T20:35:25.941Z,5.37
2023-03-02T20:37:55.635Z,5.20
2023-03-02T20:40:23.690Z,5.19
2023-03-02T20:42:51.303Z,5.07
2023-03-02T20:45:18.989Z,5.08
2023-03-02T20:47:48.938Z,5.02
2023-03-02T20:50:19.748Z,5.13
2023-03-02T20:52:47.319Z,5.07
2023-03-02T20:55:15.175Z,5.15
2023-03-02T20:57:42.867Z,5.15
2023-03-02T21:00:16.285Z,5.14
2023-03-02T21:02:47.358Z,5.10
2023-03-02T21:05:17.982Z,5.21
2023-03-02T21:07:46.246Z,5.12
2023-03-02T21:10:17.007Z,4.97
2023-03-02T21:12:45.593Z,4.99
2023-03-02T21:15:14.164Z,4.93
2023-03-02T21:17:41.764Z,4.83
2023-03-02T21:20:11.345Z,4.85
2023-03-02T21:22:40.240Z,4.81
2023-03-02T21:25:09.209Z,4.80
2023-03-02T21:27:37.124Z,4.74
2023-03-02T21:30:06.091Z,4.65
2023-03-02T21:32:33.958Z,4.84
2023-03-02T21:35:02.683Z,4.80
2023-03-02T21:37:30.358Z,4.80
2023-03-02T21:40:00.260Z,4.77
2023-03-02T21:42:27.879Z,4.80
2023-03-02T21:44:55.535Z,4.75
2023-03-02T21:47:23.137Z,4.69
2023-03-02T21:49:50.755Z,4.58
2023-03-02T21:52:18.427Z,4.51
2023-03-02T21:54:46.019Z,4.50
2023-03-02T21:57:14.954Z,4.46
2023-03-02T21:59:42.572Z,4.48
2023-03-02T22:02:10.709Z,4.63
2023-03-02T22:04:38.287Z,4.73
2023-03-02T22:07:05.974Z,4.51
2023-03-02T22:09:33.563Z,4.49
2023-03-02T22:12:01.442Z,4.45
2023-03-02T22:14:30.444Z,4.51
2023-03-02T22:16:59.202Z,4.44
2023-03-02T22:19:27.919Z,4.53
2023-03-02T22:21:56.683Z,4.48
2023-03-02T22:24:26.134Z,4.51
2023-03-02T22:26:59.124Z,4.48
2023-03-02T22:29:28.013Z,4.36
2023-03-02T22:31:58.522Z,4.40
2023-03-02T22:34:28.158Z,4.20
2023-03-02T22:36:59.760Z,4.24
2023-03-02T22:39:30.170Z,4.18
2023-03-02T22:42:06.122Z,4.13
2023-03-02T22:44:34.176Z,4.01
2023-03-02T22:47:03.372Z,4.13
2023-03-02T22:49:30.919Z,4.04
2023-03-02T22:52:02.471Z,3.92
2023-03-02T22:54:33.118Z,3.87
2023-03-02T22:57:02.803Z,3.69
2023-03-02T22:59:37.243Z,3.92
2023-03-02T23:02:14.930Z,4.00
2023-03-02T23:04:49.466Z,3.94
2023-03-02T23:07:19.108Z,3.95
2023-03-02T23:09:47.041Z,3.84
2023-03-02T23:12:17.398Z,3.74
2023-03-02T23:14:49.022Z,3.74
2023-03-02T23:17:21.017Z,3.62
2023-03-02T23:19:48.769Z,3.58
2023-03-02T23:22:16.802Z,3.67
2023-03-02T23:24:44.530Z,3.74
2023-03-02T23:27:12.499Z,3.77
2023-03-02T23:29:40.319Z,3.68
2023-03-02T23:32:08.196Z,3.66
2023-03-02T23:34:37.204Z,3.60
2023-03-02T23:37:04.894Z,3.63
2023-03-02T23:39:32.463Z,3.69
2023-03-02T23:42:00.164Z,3.68
2023-03-02T23:44:27.813Z,3.63
2023-03-02T23:46:55.377Z,3.59
2023-03-02T23:49:22.924Z,3.61
2023-03-02T23:51:51.922Z,3.48
2023-03-02T23:54:21.300Z,3.18
2023-03-02T23:56:48.865Z,3.06
2023-03-02T23:59:16.396Z,3.07
